Current Weather

Saga

Saga, Japan (RJFS)

Report from: Tuesday, April 23, 2024 7:00 AM UTC
Current time: Tuesday, April 23, 2024 8:11 AM UTC

Nearby weather – Weather history – Daily summaries
Weather forecast

Temperature21.0°C (69.8°F)
Dew point18.0°C (64.4°F)
Winds 6 kts (3.1 m/s, 6.9 mph) East-Northeast (60°)
Visibility6.2 mi. (10 km)
Clouds Few clouds 2,500 ft. (762 m)
Scattered clouds 3,000 ft. (914 m)
Ceiling: Broken clouds 3,500 ft. (1,067 m)
Altimeter29.71 in.Hg (1006 mB)
Relative humidity83 %
Density altitude1,228 ft. (374 m)
Flight conditions Visual Meteorological Conditions
Raw dataRJFS 230700Z 06006KT 9999 FEW025 SCT030 BKN035 21/18 Q1006
An error has occurred. This application may no longer respond until reloaded. Reload 🗙